Time;durP1;ratioP1;P1;durP2;ratioP2;P2;SDS_P1;SDS_P2;PMS_P1;PMS_P2;Temp;Humidity;BMP_temperature;BMP_pressure;BME280_temperature;BME280_humidity;BME280_pressure;Samples;Min_cycle;Max_cycle;Signal;HPM_P1;HPM_P2
2022/11/05 00:11:17;;;;;;;9.70;4.00;;;;;;;;;;4949614;28;20050;-82
2022/11/05 00:16:45;;;;;;;13.45;3.92;;;;;;;;;;5026292;28;20064;-80
2022/11/05 00:19:12;;;;;;;7.68;3.13;;;;;;;;;;5011586;28;20026;-79
2022/11/05 00:27:11;;;;;;;9.00;3.17;;;;;;;;;;5007805;28;20044;-80
2022/11/05 00:29:37;;;;;;;7.57;2.42;;;;;;;;;;5002500;28;20034;-79
2022/11/05 00:32:03;;;;;;;12.38;3.13;;;;;;;;;;5026115;28;20018;-81
2022/11/05 00:34:29;;;;;;;17.88;4.13;;;;;;;;;;5000852;28;20038;-82
2022/11/05 00:36:55;;;;;;;8.43;2.75;;;;;;;;;;5026720;28;20425;-83
2022/11/05 00:39:21;;;;;;;11.35;4.72;;;;;;;;;;5026026;28;20061;-81
2022/11/05 00:44:58;;;;;;;13.70;3.20;;;;;;;;;;5018249;28;20038;-82
2022/11/05 00:50:03;;;;;;;13.75;2.72;;;;;;;;;;5033973;28;20435;-80
2022/11/05 00:55:13;;;;;;;10.27;3.83;;;;;;;;;;5010695;28;20164;-80
2022/11/05 00:57:39;;;;;;;5.38;2.97;;;;;;;;;;5035189;28;20030;-81
2022/11/05 01:00:06;;;;;;;8.07;2.50;;;;;;;;;;5027005;28;20104;-81
2022/11/05 01:02:32;;;;;;;14.82;2.75;;;;;;;;;;5021934;28;20029;-82
2022/11/05 01:04:58;;;;;;;9.15;2.42;;;;;;;;;;5017565;28;20049;-82
2022/11/05 01:07:24;;;;;;;8.10;3.13;;;;;;;;;;5023140;28;20030;-83
2022/11/05 01:09:50;;;;;;;11.25;2.42;;;;;;;;;;5031050;28;20053;-81
2022/11/05 01:12:16;;;;;;;12.85;2.75;;;;;;;;;;5038063;28;20045;-81
2022/11/05 01:14:42;;;;;;;7.75;2.60;;;;;;;;;;5006767;28;20029;-80
2022/11/05 01:17:15;;;;;;;7.10;2.35;;;;;;;;;;5013956;28;20530;-80
2022/11/05 01:19:47;;;;;;;8.35;2.65;;;;;;;;;;4991688;28;20045;-80
2022/11/05 01:22:13;;;;;;;6.00;2.28;;;;;;;;;;5009255;28;20042;-82
2022/11/05 01:24:39;;;;;;;11.23;3.65;;;;;;;;;;5015874;28;20026;-82
2022/11/05 01:27:06;;;;;;;7.10;2.50;;;;;;;;;;4980080;28;20359;-80
2022/11/05 01:29:32;;;;;;;11.27;3.63;;;;;;;;;;4981794;28;20046;-79
2022/11/05 01:31:58;;;;;;;7.53;2.60;;;;;;;;;;5006632;28;20042;-80
2022/11/05 01:34:24;;;;;;;11.63;2.95;;;;;;;;;;5003060;28;20033;-79
2022/11/05 01:36:50;;;;;;;12.80;2.80;;;;;;;;;;5015204;28;20022;-80
2022/11/05 01:39:16;;;;;;;17.55;3.20;;;;;;;;;;5019934;28;20074;-82
2022/11/05 01:41:42;;;;;;;10.10;3.58;;;;;;;;;;5017440;28;20038;-82
2022/11/05 01:44:27;;;;;;;8.45;2.85;;;;;;;;;;5014411;28;20046;-82
2022/11/05 01:46:54;;;;;;;9.75;2.90;;;;;;;;;;5004106;28;20037;-83
2022/11/05 01:49:32;;;;;;;9.85;3.55;;;;;;;;;;5005048;28;20062;-81
2022/11/05 01:52:01;;;;;;;8.70;3.28;;;;;;;;;;4991586;28;20046;-81
2022/11/05 01:54:28;;;;;;;6.82;3.15;;;;;;;;;;4992061;28;20029;-81
2022/11/05 01:56:56;;;;;;;6.88;3.08;;;;;;;;;;5020720;28;20486;-82
2022/11/05 01:59:32;;;;;;;11.73;3.17;;;;;;;;;;5013577;28;20049;-81
2022/11/05 02:01:59;;;;;;;13.70;2.42;;;;;;;;;;4998332;28;20060;-82
2022/11/05 02:04:39;;;;;;;5.68;2.63;;;;;;;;;;5005862;28;20429;-81
2022/11/05 02:07:07;;;;;;;9.02;2.88;;;;;;;;;;5018734;28;20101;-82
2022/11/05 02:09:35;;;;;;;6.68;2.30;;;;;;;;;;5001135;28;20097;-83
2022/11/05 02:12:01;;;;;;;5.65;2.50;;;;;;;;;;5030431;28;20088;-82
2022/11/05 02:14:27;;;;;;;5.35;2.53;;;;;;;;;;5014844;28;20045;-83
2022/11/05 02:17:17;;;;;;;9.75;2.42;;;;;;;;;;5012560;28;20048;-83
2022/11/05 02:19:48;;;;;;;10.52;2.97;;;;;;;;;;4988758;28;20508;-81
2022/11/05 02:22:33;;;;;;;9.90;2.47;;;;;;;;;;4992903;28;20029;-81
2022/11/05 02:25:18;;;;;;;5.57;2.20;;;;;;;;;;5016307;28;20548;-78
2022/11/05 02:27:59;;;;;;;10.40;2.47;;;;;;;;;;5013932;28;20026;-79
2022/11/05 02:30:46;;;;;;;10.50;2.70;;;;;;;;;;5016629;28;20026;-80
2022/11/05 02:33:31;;;;;;;5.72;2.13;;;;;;;;;;4990303;28;20078;-79
2022/11/05 02:36:06;;;;;;;9.68;1.85;;;;;;;;;;5027921;28;20555;-79
2022/11/05 02:38:38;;;;;;;4.88;2.00;;;;;;;;;;5001688;28;20390;-80
2022/11/05 02:41:24;;;;;;;9.55;2.13;;;;;;;;;;5006313;28;20691;-80
2022/11/05 02:44:01;;;;;;;5.45;2.38;;;;;;;;;;4995684;28;20029;-80
2022/11/05 02:46:40;;;;;;;6.50;2.03;;;;;;;;;;5000804;28;20030;-80
2022/11/05 02:49:12;;;;;;;9.60;1.85;;;;;;;;;;5007142;28;20053;-80
2022/11/05 02:51:41;;;;;;;10.65;2.28;;;;;;;;;;5009739;28;20069;-80
2022/11/05 02:54:12;;;;;;;7.93;2.17;;;;;;;;;;4992857;28;20470;-80
2022/11/05 02:56:43;;;;;;;8.02;2.33;;;;;;;;;;5007919;28;20026;-80
2022/11/05 02:59:09;;;;;;;6.38;1.92;;;;;;;;;;5009281;28;20085;-81
2022/11/05 03:01:37;;;;;;;7.28;1.30;;;;;;;;;;5003599;28;20030;-80
2022/11/05 03:04:04;;;;;;;10.93;2.10;;;;;;;;;;5009283;28;20522;-81
2022/11/05 03:06:42;;;;;;;5.30;1.63;;;;;;;;;;5020572;28;20026;-81
2022/11/05 03:09:27;;;;;;;8.52;2.00;;;;;;;;;;5021717;28;20041;-82
2022/11/05 03:12:16;;;;;;;5.38;1.52;;;;;;;;;;5021591;28;20026;-81
2022/11/05 03:14:51;;;;;;;6.78;1.40;;;;;;;;;;4994735;28;20030;-81
2022/11/05 03:17:36;;;;;;;4.18;1.60;;;;;;;;;;5023085;28;20469;-80
2022/11/05 03:20:22;;;;;;;4.90;1.60;;;;;;;;;;5015129;28;20045;-81
2022/11/05 03:23:00;;;;;;;5.25;1.80;;;;;;;;;;5008524;28;20520;-78
2022/11/05 03:25:28;;;;;;;5.65;1.73;;;;;;;;;;5002739;28;20034;-79
2022/11/05 03:27:57;;;;;;;11.25;1.80;;;;;;;;;;5012138;28;20053;-80
2022/11/05 03:30:24;;;;;;;4.22;1.73;;;;;;;;;;4994499;28;20026;-76
2022/11/05 03:32:55;;;;;;;10.20;1.60;;;;;;;;;;5000323;28;20588;-82
2022/11/05 03:35:41;;;;;;;6.10;1.70;;;;;;;;;;5009177;28;20045;-78
2022/11/05 03:38:13;;;;;;;9.73;2.20;;;;;;;;;;5020878;28;20038;-82
2022/11/05 03:40:41;;;;;;;8.70;2.00;;;;;;;;;;5019098;28;20068;-83
2022/11/05 03:43:08;;;;;;;6.43;1.90;;;;;;;;;;4997537;28;20375;-82
2022/11/05 03:45:40;;;;;;;7.05;2.00;;;;;;;;;;5010755;28;20037;-79
2022/11/05 03:48:09;;;;;;;6.10;2.20;;;;;;;;;;5014638;28;20120;-78
2022/11/05 03:50:53;;;;;;;6.80;1.92;;;;;;;;;;5018298;28;20124;-78
2022/11/05 03:53:25;;;;;;;5.93;2.15;;;;;;;;;;5026067;28;20716;-79
2022/11/05 03:55:58;;;;;;;8.80;1.95;;;;;;;;;;5018486;28;20026;-81
2022/11/05 03:58:25;;;;;;;8.48;2.90;;;;;;;;;;5023776;28;20033;-80
2022/11/05 04:00:51;;;;;;;9.30;2.20;;;;;;;;;;5011343;28;20038;-78
2022/11/05 04:03:18;;;;;;;8.35;2.25;;;;;;;;;;5012026;28;20033;-80
2022/11/05 04:13:22;;;;;;;3.55;1.67;;;;;;;;;;5028669;28;20010;-80
2022/11/05 04:13:59;;;;;;;7.13;2.28;;;;;;;;;;5025996;28;20068;-78
2022/11/05 04:17:11;;;;;;;7.90;2.55;;;;;;;;;;5022692;28;20038;-78
2022/11/05 04:24:06;;;;;;;5.90;2.75;;;;;;;;;;5003877;28;20151;-79
2022/11/05 04:24:43;;;;;;;14.18;2.80;;;;;;;;;;5015647;28;20076;-79
2022/11/05 04:27:10;;;;;;;8.70;3.17;;;;;;;;;;5010412;28;20030;-79
2022/11/05 04:32:21;;;;;;;8.20;3.15;;;;;;;;;;5014356;28;20520;-80
2022/11/05 04:34:47;;;;;;;8.40;3.03;;;;;;;;;;5018883;28;20030;-78
2022/11/05 04:37:13;;;;;;;4.97;2.75;;;;;;;;;;5004127;28;20030;-81
2022/11/05 04:39:39;;;;;;;9.63;3.55;;;;;;;;;;5021505;28;20048;-81
2022/11/05 04:42:05;;;;;;;9.55;3.60;;;;;;;;;;5030236;28;20038;-80
2022/11/05 04:44:31;;;;;;;10.82;3.30;;;;;;;;;;5021645;28;20040;-80
2022/11/05 04:46:57;;;;;;;9.88;3.45;;;;;;;;;;5022321;28;20105;-80
2022/11/05 04:49:23;;;;;;;9.98;3.90;;;;;;;;;;5001845;28;20054;-79
2022/11/05 04:51:49;;;;;;;14.15;4.18;;;;;;;;;;5017616;28;20089;-80
2022/11/05 04:54:16;;;;;;;6.95;3.45;;;;;;;;;;5012075;28;20030;-80
2022/11/05 04:56:42;;;;;;;8.68;4.00;;;;;;;;;;5022360;28;20033;-80
2022/11/05 04:59:08;;;;;;;10.68;4.00;;;;;;;;;;5021512;28;20383;-81
2022/11/05 05:01:34;;;;;;;8.25;4.38;;;;;;;;;;5008295;28;21820;-80
2022/11/05 05:04:00;;;;;;;8.73;4.30;;;;;;;;;;5018930;28;20490;-80
2022/11/05 05:06:26;;;;;;;15.00;5.40;;;;;;;;;;5019883;28;20026;-79
2022/11/05 05:08:52;;;;;;;8.55;5.22;;;;;;;;;;5029552;28;20041;-82
2022/11/05 05:11:20;;;;;;;14.63;6.05;;;;;;;;;;5033161;28;20065;-81
2022/11/05 05:13:46;;;;;;;11.93;6.53;;;;;;;;;;5009126;28;20187;-81
2022/11/05 05:16:23;;;;;;;15.65;6.82;;;;;;;;;;5011250;28;20473;-80
2022/11/05 05:18:49;;;;;;;11.02;6.20;;;;;;;;;;5025248;28;20026;-82
2022/11/05 05:24:01;;;;;;;16.50;6.15;;;;;;;;;;5014358;28;20108;-79
2022/11/05 05:26:27;;;;;;;19.80;6.70;;;;;;;;;;5014093;28;20042;-80
2022/11/05 05:28:53;;;;;;;11.05;6.82;;;;;;;;;;5023412;28;20045;-81
2022/11/05 05:31:20;;;;;;;14.93;6.93;;;;;;;;;;4993270;28;20053;-79
2022/11/05 05:33:46;;;;;;;11.90;6.47;;;;;;;;;;5014134;28;20034;-80
2022/11/05 05:36:12;;;;;;;16.13;6.85;;;;;;;;;;5014341;28;20022;-81
2022/11/05 05:38:38;;;;;;;16.65;6.05;;;;;;;;;;5012952;28;21320;-80
2022/11/05 05:41:04;;;;;;;15.00;5.90;;;;;;;;;;5001175;28;20038;-80
2022/11/05 05:43:30;;;;;;;11.02;5.82;;;;;;;;;;5000307;28;20088;-80
2022/11/05 05:45:57;;;;;;;124.75;92.38;;;;;;;;;;5011400;28;20058;-84
2022/11/05 05:48:23;;;;;;;56.47;31.20;;;;;;;;;;5014356;28;20034;-83
2022/11/05 05:50:49;;;;;;;24.45;14.85;;;;;;;;;;5021682;28;20060;-86
2022/11/05 05:53:16;;;;;;;22.33;9.82;;;;;;;;;;5010894;28;20034;-81
2022/11/05 05:55:42;;;;;;;14.02;6.03;;;;;;;;;;5006719;28;20084;-81
2022/11/05 05:58:08;;;;;;;12.27;5.63;;;;;;;;;;5006234;28;20030;-79
2022/11/05 06:00:34;;;;;;;14.30;6.50;;;;;;;;;;4988587;28;20398;-81
2022/11/05 06:03:00;;;;;;;11.60;5.07;;;;;;;;;;4983151;28;20080;-79
2022/11/05 06:05:26;;;;;;;9.65;5.25;;;;;;;;;;5005785;28;20057;-80
2022/11/05 06:07:56;;;;;;;13.45;5.78;;;;;;;;;;5006138;28;20045;-86
2022/11/05 06:10:22;;;;;;;12.20;4.90;;;;;;;;;;5009558;28;20080;-84
2022/11/05 06:12:48;;;;;;;15.68;5.20;;;;;;;;;;5017215;28;20524;-80
2022/11/05 06:15:15;;;;;;;20.85;6.57;;;;;;;;;;5014202;28;20026;-79
2022/11/05 06:17:42;;;;;;;9.05;5.13;;;;;;;;;;5002528;28;20029;-80
2022/11/05 06:20:09;;;;;;;10.20;5.63;;;;;;;;;;5014088;28;20049;-80
2022/11/05 06:22:35;;;;;;;14.45;5.90;;;;;;;;;;4996715;28;20033;-85
2022/11/05 06:25:01;;;;;;;10.05;6.10;;;;;;;;;;5017524;28;20061;-87
2022/11/05 06:27:28;;;;;;;12.48;6.55;;;;;;;;;;5005933;28;20391;-86
2022/11/05 06:29:54;;;;;;;17.00;7.13;;;;;;;;;;5001242;28;20034;-85
2022/11/05 06:32:20;;;;;;;13.43;6.32;;;;;;;;;;5017946;28;20509;-87
2022/11/05 06:34:46;;;;;;;11.13;6.50;;;;;;;;;;5000883;28;20394;-83
2022/11/05 06:37:12;;;;;;;15.70;6.40;;;;;;;;;;5016233;28;20030;-80
2022/11/05 06:39:38;;;;;;;14.07;6.80;;;;;;;;;;5003962;28;20062;-76
2022/11/05 06:42:04;;;;;;;16.33;7.47;;;;;;;;;;5009341;28;20068;-85
2022/11/05 06:44:30;;;;;;;14.60;7.57;;;;;;;;;;5002092;28;20053;-87
2022/11/05 06:46:56;;;;;;;13.20;6.55;;;;;;;;;;5005455;28;20052;-87
2022/11/05 06:49:25;;;;;;;11.50;6.80;;;;;;;;;;5009991;28;20054;-85
2022/11/05 06:51:52;;;;;;;14.98;6.20;;;;;;;;;;5002068;28;20088;-87
2022/11/05 06:54:18;;;;;;;12.20;6.50;;;;;;;;;;5002485;28;20037;-86
2022/11/05 06:56:44;;;;;;;17.88;6.38;;;;;;;;;;5008871;28;20041;-81
2022/11/05 06:59:10;;;;;;;11.82;6.05;;;;;;;;;;4996567;28;20485;-83
2022/11/05 07:01:36;;;;;;;12.20;6.47;;;;;;;;;;4998917;28;20118;-86
2022/11/05 07:04:03;;;;;;;11.95;6.72;;;;;;;;;;5004303;28;20478;-83
2022/11/05 07:06:29;;;;;;;9.95;6.68;;;;;;;;;;4990477;28;20043;-81
2022/11/05 07:08:55;;;;;;;12.43;6.35;;;;;;;;;;5000119;28;20096;-83
2022/11/05 07:11:21;;;;;;;11.35;6.22;;;;;;;;;;4996593;28;20034;-85
2022/11/05 07:13:48;;;;;;;10.15;5.78;;;;;;;;;;5006225;28;20034;-83
2022/11/05 07:16:14;;;;;;;13.70;6.22;;;;;;;;;;5005591;28;20029;-83
2022/11/05 07:18:40;;;;;;;13.88;7.20;;;;;;;;;;5003413;28;20089;-83
2022/11/05 07:21:07;;;;;;;14.35;7.55;;;;;;;;;;5007913;28;20900;-84
2022/11/05 07:23:33;;;;;;;12.35;7.15;;;;;;;;;;5010557;28;20030;-82
2022/11/05 07:26:00;;;;;;;13.20;7.35;;;;;;;;;;4990790;28;20038;-83
2022/11/05 07:28:26;;;;;;;11.48;7.50;;;;;;;;;;5005802;28;20080;-85
2022/11/05 07:30:52;;;;;;;14.05;6.70;;;;;;;;;;5003936;28;20422;-84
2022/11/05 07:33:18;;;;;;;19.13;6.95;;;;;;;;;;5010871;28;20492;-87
2022/11/05 07:35:44;;;;;;;15.88;6.28;;;;;;;;;;5009048;28;20049;-81
2022/11/05 07:38:11;;;;;;;19.70;5.85;;;;;;;;;;5003255;28;20023;-80
2022/11/05 07:40:37;;;;;;;43.05;24.63;;;;;;;;;;5003954;28;20034;-79
2022/11/05 07:43:03;;;;;;;20.05;12.63;;;;;;;;;;4999151;28;20034;-82
2022/11/05 07:45:30;;;;;;;14.13;8.82;;;;;;;;;;5017216;28;20038;-83
2022/11/05 07:47:57;;;;;;;21.15;8.07;;;;;;;;;;5009723;28;20026;-83
2022/11/05 07:50:24;;;;;;;12.38;6.70;;;;;;;;;;5011333;28;20137;-80
2022/11/05 07:52:50;;;;;;;14.30;7.90;;;;;;;;;;4995094;28;20437;-83
2022/11/05 07:55:17;;;;;;;16.98;7.63;;;;;;;;;;5002773;28;20034;-83
2022/11/05 07:57:44;;;;;;;14.18;6.03;;;;;;;;;;5014554;28;20061;-81
2022/11/05 08:00:11;;;;;;;19.35;7.40;;;;;;;;;;5012518;28;20038;-80
2022/11/05 08:02:37;;;;;;;20.52;8.40;;;;;;;;;;5006183;28;20030;-81
2022/11/05 08:05:03;;;;;;;22.70;12.25;;;;;;;;;;4992336;28;20043;-83
2022/11/05 08:07:30;;;;;;;29.85;14.93;;;;;;;;;;4970208;28;20219;-78
2022/11/05 08:09:56;;;;;;;23.38;13.25;;;;;;;;;;4973356;28;20157;-81
2022/11/05 08:12:22;;;;;;;28.88;14.60;;;;;;;;;;4977174;28;20035;-81
2022/11/05 08:14:49;;;;;;;29.92;15.00;;;;;;;;;;4975489;28;20463;-81
2022/11/05 08:17:16;;;;;;;25.13;11.20;;;;;;;;;;4970471;28;20098;-78
2022/11/05 08:19:42;;;;;;;28.45;16.48;;;;;;;;;;4967385;28;20027;-80
2022/11/05 08:22:08;;;;;;;21.67;11.68;;;;;;;;;;4978873;28;20069;-80
2022/11/05 08:24:34;;;;;;;21.05;10.68;;;;;;;;;;4963690;28;20035;-79
2022/11/05 08:27:00;;;;;;;16.13;6.32;;;;;;;;;;4970627;28;20487;-79
2022/11/05 08:29:26;;;;;;;15.07;7.93;;;;;;;;;;4958337;28;20035;-79
2022/11/05 08:31:52;;;;;;;20.42;9.57;;;;;;;;;;4977994;28;20034;-77
2022/11/05 08:34:18;;;;;;;14.70;7.53;;;;;;;;;;4964552;28;20027;-80
2022/11/05 08:36:45;;;;;;;13.55;7.45;;;;;;;;;;4989435;28;20050;-80
2022/11/05 08:39:17;;;;;;;14.85;7.25;;;;;;;;;;4966800;28;20066;-77
2022/11/05 08:41:43;;;;;;;9.47;6.33;;;;;;;;;;4973105;28;20070;-78
2022/11/05 08:44:09;;;;;;;14.05;6.78;;;;;;;;;;4966366;28;20039;-78
2022/11/05 08:46:36;;;;;;;9.20;4.97;;;;;;;;;;4972910;28;20391;-78
2022/11/05 08:49:02;;;;;;;16.55;5.20;;;;;;;;;;4972587;28;20590;-79
2022/11/05 08:51:28;;;;;;;12.80;5.00;;;;;;;;;;4955026;28;20391;-78
2022/11/05 08:53:54;;;;;;;8.88;5.65;;;;;;;;;;4970328;28;20392;-79
2022/11/05 08:56:20;;;;;;;12.52;5.10;;;;;;;;;;4983303;28;20463;-79
2022/11/05 08:58:46;;;;;;;8.75;5.05;;;;;;;;;;4954105;28;20031;-79
2022/11/05 09:01:12;;;;;;;6.55;3.58;;;;;;;;;;4969945;28;20147;-79
2022/11/05 09:03:38;;;;;;;35.72;19.75;;;;;;;;;;4965874;28;20511;-77
2022/11/05 09:06:04;;;;;;;17.63;10.15;;;;;;;;;;4969358;28;20498;-76
2022/11/05 09:08:31;;;;;;;10.90;5.18;;;;;;;;;;4968360;28;20038;-81
2022/11/05 09:10:57;;;;;;;6.40;3.47;;;;;;;;;;4980481;28;20114;-79
2022/11/05 09:13:23;;;;;;;5.55;3.25;;;;;;;;;;4978384;28;20031;-79
2022/11/05 09:15:50;;;;;;;14.52;3.80;;;;;;;;;;4967465;28;20030;-79
2022/11/05 09:18:17;;;;;;;7.93;3.33;;;;;;;;;;4970927;28;20058;-80
2022/11/05 09:20:43;;;;;;;8.20;2.90;;;;;;;;;;4963320;28;20037;-79
2022/11/05 09:23:10;;;;;;;8.70;3.20;;;;;;;;;;4976084;28;20109;-77
2022/11/05 09:25:36;;;;;;;9.35;3.17;;;;;;;;;;4965929;28;20034;-79
2022/11/05 09:28:09;;;;;;;7.10;4.07;;;;;;;;;;4985293;28;20077;-80
2022/11/05 09:30:39;;;;;;;7.78;2.75;;;;;;;;;;4968361;28;20198;-81
2022/11/05 09:33:05;;;;;;;7.25;2.78;;;;;;;;;;4972010;28;20039;-79
2022/11/05 09:35:31;;;;;;;6.43;2.58;;;;;;;;;;4964894;28;20030;-82
2022/11/05 09:37:57;;;;;;;7.30;2.72;;;;;;;;;;4971445;28;20038;-80
2022/11/05 09:40:24;;;;;;;7.70;2.72;;;;;;;;;;4971417;28;20023;-79
2022/11/05 09:42:53;;;;;;;6.30;2.70;;;;;;;;;;4962894;28;20857;-79
2022/11/05 09:45:21;;;;;;;9.05;2.40;;;;;;;;;;4967961;28;20490;-80
2022/11/05 09:47:56;;;;;;;7.95;2.33;;;;;;;;;;4968066;28;20027;-80
2022/11/05 09:50:25;;;;;;;6.43;2.33;;;;;;;;;;4969128;28;20047;-80
2022/11/05 09:52:51;;;;;;;9.07;2.65;;;;;;;;;;4966311;28;20030;-76
2022/11/05 09:55:25;;;;;;;8.18;2.35;;;;;;;;;;4955804;28;20392;-85
2022/11/05 09:57:57;;;;;;;8.20;2.67;;;;;;;;;;4960219;28;20519;-86
2022/11/05 10:00:23;;;;;;;4.68;2.38;;;;;;;;;;4965820;28;20043;-84
2022/11/05 10:02:54;;;;;;;4.80;2.10;;;;;;;;;;4975705;28;20368;-83
2022/11/05 10:05:21;;;;;;;4.50;2.30;;;;;;;;;;4976350;28;20038;-85
2022/11/05 10:07:49;;;;;;;4.13;2.00;;;;;;;;;;4965319;28;20178;-84
2022/11/05 10:10:28;;;;;;;4.25;1.98;;;;;;;;;;4970687;28;20499;-87
2022/11/05 10:12:56;;;;;;;5.05;1.83;;;;;;;;;;4964143;28;20054;-86
2022/11/05 10:15:26;;;;;;;4.78;1.73;;;;;;;;;;4977707;28;20031;-87
2022/11/05 10:18:18;;;;;;;7.38;1.50;;;;;;;;;;4980838;28;20039;-86
2022/11/05 10:20:44;;;;;;;6.45;1.98;;;;;;;;;;4946712;28;20073;-83
2022/11/05 10:23:12;;;;;;;3.40;1.42;;;;;;;;;;4960809;28;20126;-86
2022/11/05 10:25:40;;;;;;;3.58;1.98;;;;;;;;;;4967717;28;20034;-83
2022/11/05 10:28:07;;;;;;;10.23;1.63;;;;;;;;;;4962113;28;20035;-82
2022/11/05 10:30:33;;;;;;;7.28;2.60;;;;;;;;;;4963454;28;20077;-84
2022/11/05 10:33:01;;;;;;;4.35;1.70;;;;;;;;;;4956203;28;20034;-87
2022/11/05 10:35:47;;;;;;;8.32;1.75;;;;;;;;;;4968285;28;20061;-81
2022/11/05 10:38:14;;;;;;;8.23;2.10;;;;;;;;;;4973335;28;20041;-82
2022/11/05 10:40:53;;;;;;;4.70;1.52;;;;;;;;;;4970497;28;20435;-82
2022/11/05 10:43:39;;;;;;;7.78;2.45;;;;;;;;;;4953060;28;20498;-81
2022/11/05 10:46:05;;;;;;;7.97;1.90;;;;;;;;;;4970152;28;20027;-82
2022/11/05 10:48:43;;;;;;;6.93;1.85;;;;;;;;;;4947490;28;20356;-79
2022/11/05 10:51:10;;;;;;;5.97;1.80;;;;;;;;;;4965950;28;20042;-82
2022/11/05 10:53:38;;;;;;;5.85;2.42;;;;;;;;;;4960809;28;20035;-81
2022/11/05 10:56:24;;;;;;;20.33;9.98;;;;;;;;;;4963422;28;20483;-82
2022/11/05 10:58:57;;;;;;;3.90;1.30;;;;;;;;;;4956813;28;20042;-81
2022/11/05 11:01:25;;;;;;;6.07;1.83;;;;;;;;;;4962718;28;20078;-81
2022/11/05 11:04:12;;;;;;;4.95;1.38;;;;;;;;;;4958701;28;20042;-80
2022/11/05 11:06:40;;;;;;;4.07;1.27;;;;;;;;;;4957050;28;20416;-82
2022/11/05 11:09:08;;;;;;;4.72;1.60;;;;;;;;;;4973031;28;20031;-82
2022/11/05 11:11:34;;;;;;;6.03;1.90;;;;;;;;;;4966226;28;20033;-81
2022/11/05 11:14:13;;;;;;;4.95;1.80;;;;;;;;;;4971836;28;20083;-82
2022/11/05 11:16:43;;;;;;;4.30;1.30;;;;;;;;;;4954465;28;20019;-80
2022/11/05 11:19:21;;;;;;;4.68;1.40;;;;;;;;;;4972966;28;20023;-81
2022/11/05 11:21:58;;;;;;;12.75;2.20;;;;;;;;;;4970318;28;20356;-81
2022/11/05 11:24:26;;;;;;;5.30;1.40;;;;;;;;;;4970923;28;20019;-80
2022/11/05 11:26:53;;;;;;;3.78;1.95;;;;;;;;;;4969333;28;20475;-81
2022/11/05 11:29:30;;;;;;;3.60;1.45;;;;;;;;;;4971794;28;20117;-81
2022/11/05 11:31:57;;;;;;;5.75;1.48;;;;;;;;;;4960216;28;20030;-81
2022/11/05 11:34:32;;;;;;;6.40;2.38;;;;;;;;;;4953453;28;20046;-81
2022/11/05 11:37:03;;;;;;;4.18;1.48;;;;;;;;;;4964634;28;20019;-81
2022/11/05 11:39:30;;;;;;;4.05;1.15;;;;;;;;;;4954255;28;20045;-81
2022/11/05 11:41:59;;;;;;;3.67;1.05;;;;;;;;;;4972088;28;20042;-81
2022/11/05 11:44:30;;;;;;;5.47;1.33;;;;;;;;;;4984744;28;20387;-81
2022/11/05 11:47:00;;;;;;;2.83;1.30;;;;;;;;;;4969307;28;20476;-81
2022/11/05 11:49:29;;;;;;;4.40;0.82;;;;;;;;;;4965995;28;20054;-81
2022/11/05 11:52:00;;;;;;;2.45;0.80;;;;;;;;;;4971758;28;20384;-82
2022/11/05 11:54:26;;;;;;;4.70;1.10;;;;;;;;;;4958596;28;20028;-81
2022/11/05 11:56:52;;;;;;;4.00;1.67;;;;;;;;;;4935493;29;20086;-83
2022/11/05 11:59:23;;;;;;;1.92;0.90;;;;;;;;;;4937743;29;20031;-82
2022/11/05 12:02:06;;;;;;;7.30;1.60;;;;;;;;;;4943742;28;20122;-82
2022/11/05 12:04:32;;;;;;;5.40;1.25;;;;;;;;;;4987246;28;20060;-81
2022/11/05 12:06:58;;;;;;;3.33;1.00;;;;;;;;;;4974818;28;20026;-82
2022/11/05 12:09:27;;;;;;;3.97;1.20;;;;;;;;;;4969912;28;20035;-82
2022/11/05 12:12:13;;;;;;;3.75;1.00;;;;;;;;;;4973089;28;20022;-83
2022/11/05 12:14:45;;;;;;;2.80;1.02;;;;;;;;;;4971730;28;20035;-82
2022/11/05 12:17:21;;;;;;;7.28;1.40;;;;;;;;;;4950958;28;20023;-81
2022/11/05 12:20:03;;;;;;;8.20;1.30;;;;;;;;;;4975196;28;20027;-82
2022/11/05 12:22:47;;;;;;;7.15;1.58;;;;;;;;;;4973889;28;20054;-82
2022/11/05 12:25:13;;;;;;;5.32;1.20;;;;;;;;;;4983755;28;20031;-82
2022/11/05 12:27:39;;;;;;;6.10;1.48;;;;;;;;;;4979861;28;20031;-81
2022/11/05 12:30:14;;;;;;;3.38;1.42;;;;;;;;;;4987273;28;20037;-83
2022/11/05 12:33:00;;;;;;;5.47;1.60;;;;;;;;;;4959466;28;20094;-82
2022/11/05 12:35:34;;;;;;;4.18;1.27;;;;;;;;;;4974701;28;20014;-82
2022/11/05 12:38:08;;;;;;;5.35;1.48;;;;;;;;;;4989014;28;20030;-82
2022/11/05 12:40:49;;;;;;;3.38;1.58;;;;;;;;;;4987028;28;20463;-82
2022/11/05 12:43:34;;;;;;;4.65;1.45;;;;;;;;;;4986099;28;20031;-82
2022/11/05 12:46:00;;;;;;;5.50;1.58;;;;;;;;;;4969936;28;20041;-82
2022/11/05 12:48:34;;;;;;;4.22;1.33;;;;;;;;;;4975546;28;20424;-81
2022/11/05 12:51:09;;;;;;;8.88;1.50;;;;;;;;;;4955497;28;20105;-82
2022/11/05 12:53:50;;;;;;;8.25;1.70;;;;;;;;;;4976270;28;20079;-82
2022/11/05 12:56:20;;;;;;;9.93;2.80;;;;;;;;;;4968885;28;20039;-82
2022/11/05 12:58:50;;;;;;;9.50;2.13;;;;;;;;;;4974420;28;20111;-82
2022/11/05 13:01:19;;;;;;;4.07;1.98;;;;;;;;;;4964701;28;20507;-81
2022/11/05 13:03:54;;;;;;;10.45;2.72;;;;;;;;;;4955210;29;20031;-82
2022/11/05 13:06:23;;;;;;;4.80;2.20;;;;;;;;;;4939304;28;20031;-83
2022/11/05 13:09:08;;;;;;;10.43;2.30;;;;;;;;;;4965477;28;20035;-84
2022/11/05 13:11:36;;;;;;;7.82;2.67;;;;;;;;;;4960646;28;20884;-82
2022/11/05 13:14:08;;;;;;;8.38;3.08;;;;;;;;;;4964053;28;20383;-80
2022/11/05 13:16:40;;;;;;;9.00;2.55;;;;;;;;;;4966805;28;20035;-78
2022/11/05 13:19:15;;;;;;;9.87;2.63;;;;;;;;;;4964801;28;20035;-80
2022/11/05 13:21:42;;;;;;;5.80;2.90;;;;;;;;;;4945036;28;20301;-79
2022/11/05 13:24:13;;;;;;;5.25;2.70;;;;;;;;;;4955604;28;20039;-77
2022/11/05 13:26:46;;;;;;;8.13;4.28;;;;;;;;;;4957372;28;20505;-76
2022/11/05 13:29:32;;;;;;;13.95;4.75;;;;;;;;;;4969078;28;20078;-75
2022/11/05 13:32:03;;;;;;;8.23;3.58;;;;;;;;;;4965348;28;20026;-78
2022/11/05 13:34:30;;;;;;;8.88;2.78;;;;;;;;;;4971940;28;20019;-78
2022/11/05 13:39:45;;;;;;;7.32;3.05;;;;;;;;;;4967538;28;20061;-79
2022/11/05 13:42:27;;;;;;;10.13;4.70;;;;;;;;;;4960909;28;20113;-79
2022/11/05 13:45:12;;;;;;;14.43;4.23;;;;;;;;;;4965536;28;20043;-79
2022/11/05 13:47:41;;;;;;;6.32;2.90;;;;;;;;;;4958690;28;20344;-78
2022/11/05 13:50:25;;;;;;;7.15;2.38;;;;;;;;;;4961900;28;20057;-79
2022/11/05 13:52:51;;;;;;;12.60;3.28;;;;;;;;;;4966103;28;20741;-78
2022/11/05 13:55:20;;;;;;;7.90;3.40;;;;;;;;;;4970212;28;20110;-80
2022/11/05 13:57:52;;;;;;;11.15;3.58;;;;;;;;;;4959394;28;20379;-76
2022/11/05 14:00:20;;;;;;;11.43;3.13;;;;;;;;;;4969985;28;20042;-77
2022/11/05 14:02:46;;;;;;;16.88;3.40;;;;;;;;;;4968884;28;20031;-76
2022/11/05 14:05:35;;;;;;;9.07;2.90;;;;;;;;;;4971256;28;20038;-76
2022/11/05 14:08:07;;;;;;;8.60;2.85;;;;;;;;;;4952731;28;20067;-79
2022/11/05 14:10:37;;;;;;;4.72;2.40;;;;;;;;;;4972019;28;20035;-79
2022/11/05 14:13:08;;;;;;;8.45;3.22;;;;;;;;;;4965029;28;20089;-80
2022/11/05 14:15:34;;;;;;;11.65;3.33;;;;;;;;;;4971844;28;20042;-79
2022/11/05 14:18:02;;;;;;;11.77;2.92;;;;;;;;;;4965686;28;20129;-75
2022/11/05 14:20:31;;;;;;;7.82;2.65;;;;;;;;;;4959246;28;20034;-78
2022/11/05 14:23:16;;;;;;;11.30;3.65;;;;;;;;;;4964759;28;20105;-78
2022/11/05 14:25:42;;;;;;;15.75;7.60;;;;;;;;;;4969824;28;20027;-74
2022/11/05 14:28:27;;;;;;;12.05;3.95;;;;;;;;;;4962104;28;20027;-79
2022/11/05 14:30:53;;;;;;;9.50;3.03;;;;;;;;;;4960870;28;20105;-80
2022/11/05 14:33:25;;;;;;;9.10;3.20;;;;;;;;;;4965316;28;20029;-80
2022/11/05 14:35:52;;;;;;;10.45;3.97;;;;;;;;;;4959969;28;20364;-78
2022/11/05 14:38:20;;;;;;;9.45;3.53;;;;;;;;;;4968132;28;20055;-78
2022/11/05 14:40:47;;;;;;;7.30;3.33;;;;;;;;;;4971259;28;20432;-78
2022/11/05 14:43:13;;;;;;;8.85;3.45;;;;;;;;;;4960851;28;20783;-79
2022/11/05 14:45:40;;;;;;;9.52;3.55;;;;;;;;;;4962540;28;20027;-79
2022/11/05 14:48:23;;;;;;;7.60;3.30;;;;;;;;;;4965855;28;20038;-79
2022/11/05 14:50:49;;;;;;;;;;;;;;;;;;4939472;28;20047;-79
2022/11/05 14:53:33;;;;;;;5.57;3.33;;;;;;;;;;4974080;28;19957;-80
2022/11/05 14:56:08;;;;;;;12.75;3.47;;;;;;;;;;4959944;28;20033;-80
2022/11/05 14:58:38;;;;;;;11.35;3.67;;;;;;;;;;4957607;28;20027;-80
2022/11/05 15:01:09;;;;;;;14.57;3.83;;;;;;;;;;4969156;28;20387;-81
2022/11/05 15:03:35;;;;;;;9.93;4.10;;;;;;;;;;4967338;28;20086;-79
2022/11/05 15:06:04;;;;;;;13.05;3.92;;;;;;;;;;4966122;28;20045;-75
2022/11/05 15:08:34;;;;;;;10.35;4.45;;;;;;;;;;4960332;28;20030;-79
2022/11/05 15:11:27;;;;;;;8.43;4.05;;;;;;;;;;4959567;28;20043;-78
2022/11/05 15:13:53;;;;;;;10.10;4.65;;;;;;;;;;4936764;28;20047;-78
2022/11/05 15:16:22;;;;;;;13.52;4.65;;;;;;;;;;4968970;28;20037;-78
2022/11/05 15:18:48;;;;;;;10.43;3.83;;;;;;;;;;4966578;28;20035;-78
2022/11/05 15:21:16;;;;;;;6.95;4.20;;;;;;;;;;4966999;28;20019;-77
2022/11/05 15:23:43;;;;;;;9.95;4.32;;;;;;;;;;4973349;28;20057;-78
2022/11/05 15:26:18;;;;;;;12.65;5.20;;;;;;;;;;4970322;28;20468;-78
2022/11/05 15:28:48;;;;;;;10.13;5.15;;;;;;;;;;4980350;28;20475;-79
2022/11/05 15:31:14;;;;;;;10.45;5.18;;;;;;;;;;4960277;28;20038;-77
2022/11/05 15:33:41;;;;;;;8.10;4.20;;;;;;;;;;4955580;28;20034;-78
2022/11/05 15:36:17;;;;;;;11.98;4.28;;;;;;;;;;4964125;28;20089;-79
2022/11/05 15:38:43;;;;;;;11.40;4.45;;;;;;;;;;4967688;28;20088;-79